createdAt,value
2023-01-26T00:01:21.816Z,45.53
2023-01-26T00:03:49.637Z,45.29
2023-01-26T00:06:18.706Z,45.25
2023-01-26T00:08:50.598Z,45.71
2023-01-26T00:11:26.972Z,45.57
2023-01-26T00:13:55.233Z,45.15
2023-01-26T00:16:22.000Z,45.54
2023-01-26T00:18:48.978Z,45.25
2023-01-26T00:21:18.331Z,44.74
2023-01-26T00:23:45.495Z,45.17
2023-01-26T00:26:18.242Z,45.70
2023-01-26T00:28:45.184Z,45.87
2023-01-26T00:31:14.690Z,45.09
2023-01-26T00:33:41.827Z,44.32
2023-01-26T00:36:11.651Z,45.08
2023-01-26T00:38:40.405Z,45.10
2023-01-26T00:41:08.517Z,45.12
2023-01-26T00:43:35.408Z,44.90
2023-01-26T00:46:02.334Z,44.84
2023-01-26T00:48:29.128Z,44.87
2023-01-26T00:50:57.189Z,45.30
2023-01-26T00:53:23.981Z,44.85
2023-01-26T00:55:56.048Z,44.25
2023-01-26T00:58:23.052Z,43.87
2023-01-26T01:00:49.779Z,44.81
2023-01-26T01:03:16.700Z,45.05
2023-01-26T01:05:47.250Z,44.48
2023-01-26T01:08:14.278Z,44.16
2023-01-26T01:10:41.023Z,44.39
2023-01-26T01:13:07.757Z,44.42
2023-01-26T01:15:34.659Z,44.20
2023-01-26T01:18:01.523Z,44.07
2023-01-26T01:20:30.138Z,44.73
2023-01-26T01:22:57.128Z,44.43
2023-01-26T01:25:24.121Z,44.16
2023-01-26T01:27:51.044Z,44.41
2023-01-26T01:30:18.000Z,44.49
2023-01-26T01:32:45.050Z,44.06
2023-01-26T01:35:12.045Z,43.66
2023-01-26T01:37:38.857Z,43.50
2023-01-26T01:40:06.285Z,43.47
2023-01-26T01:42:33.846Z,43.76
2023-01-26T01:45:26.679Z,43.64
2023-01-26T01:47:56.982Z,44.06
2023-01-26T01:50:25.196Z,43.67
2023-01-26T01:52:54.077Z,43.57
2023-01-26T01:55:20.945Z,43.61
2023-01-26T01:57:53.702Z,44.43
2023-01-26T02:00:23.632Z,43.96
2023-01-26T02:03:12.720Z,44.23
2023-01-26T02:05:48.851Z,43.75
2023-01-26T02:08:19.065Z,44.18
2023-01-26T02:10:49.500Z,43.71
2023-01-26T02:13:18.745Z,43.60
2023-01-26T02:15:46.456Z,44.15
2023-01-26T02:18:13.374Z,43.79
2023-01-26T02:20:53.277Z,43.44
2023-01-26T02:23:49.363Z,43.94
2023-01-26T02:26:19.731Z,43.76
2023-01-26T02:28:47.801Z,43.26
2023-01-26T02:31:16.805Z,43.64
2023-01-26T02:33:44.302Z,43.56
2023-01-26T02:36:40.591Z,43.49
2023-01-26T02:39:13.254Z,42.92
2023-01-26T02:41:59.219Z,44.73
2023-01-26T02:44:27.385Z,44.62
2023-01-26T02:46:54.233Z,44.39
2023-01-26T02:49:39.708Z,44.11
2023-01-26T02:52:07.759Z,44.74
2023-01-26T02:54:54.209Z,44.06
2023-01-26T02:57:21.098Z,44.95
2023-01-26T02:59:47.878Z,45.53
2023-01-26T03:02:14.926Z,45.21
2023-01-26T03:04:42.661Z,44.66
2023-01-26T03:07:09.838Z,44.29
2023-01-26T03:09:36.889Z,44.80
2023-01-26T03:12:04.008Z,44.83
2023-01-26T03:14:31.357Z,44.69
2023-01-26T03:16:58.279Z,44.69
2023-01-26T03:19:43.605Z,44.49
2023-01-26T03:22:30.591Z,44.84
2023-01-26T03:25:17.342Z,45.71
2023-01-26T03:27:48.360Z,45.09
2023-01-26T03:30:19.351Z,45.24
2023-01-26T03:32:48.118Z,46.11
2023-01-26T03:35:22.646Z,44.65
2023-01-26T03:37:54.761Z,44.82
2023-01-26T03:40:58.306Z,45.36
2023-01-26T03:43:43.580Z,46.04
2023-01-26T03:46:29.032Z,46.10
2023-01-26T03:49:14.392Z,45.06
2023-01-26T03:51:59.684Z,45.22
2023-01-26T03:54:45.019Z,45.67
2023-01-26T03:57:12.513Z,46.86
2023-01-26T03:59:39.393Z,45.92
2023-01-26T04:02:31.270Z,46.35
2023-01-26T04:05:17.723Z,44.98
2023-01-26T04:08:07.036Z,45.56
2023-01-26T04:10:33.976Z,45.60
2023-01-26T04:13:22.112Z,45.39
2023-01-26T04:16:13.116Z,45.82
2023-01-26T04:18:59.541Z,45.64
2023-01-26T04:21:30.674Z,45.56
2023-01-26T04:24:00.464Z,46.01
2023-01-26T04:26:34.996Z,45.30
2023-01-26T04:29:05.932Z,45.85
2023-01-26T04:31:32.889Z,46.56
2023-01-26T04:34:01.108Z,46.12
2023-01-26T04:36:29.526Z,45.72
2023-01-26T04:38:56.500Z,45.66
2023-01-26T04:41:23.318Z,45.80
2023-01-26T04:44:02.242Z,46.05
2023-01-26T04:46:29.587Z,45.90
2023-01-26T04:48:56.504Z,45.87
2023-01-26T04:51:24.490Z,46.51
2023-01-26T04:53:51.680Z,45.94
2023-01-26T04:56:19.792Z,46.18
2023-01-26T04:58:46.699Z,45.68
2023-01-26T05:01:13.871Z,45.98
2023-01-26T05:03:40.763Z,46.09
2023-01-26T05:06:08.591Z,45.44
2023-01-26T05:08:37.065Z,45.24
2023-01-26T05:11:05.024Z,46.10
2023-01-26T05:13:44.068Z,45.38
2023-01-26T05:16:25.064Z,45.08
2023-01-26T05:19:15.278Z,45.25
2023-01-26T05:22:17.352Z,44.90
2023-01-26T05:25:04.441Z,44.66
2023-01-26T05:27:41.042Z,44.35
2023-01-26T05:30:09.101Z,44.64
2023-01-26T05:32:37.137Z,44.07
2023-01-26T05:35:05.825Z,44.27
2023-01-26T05:37:34.035Z,44.52
2023-01-26T05:40:01.173Z,44.94
2023-01-26T05:42:28.549Z,43.86
2023-01-26T05:44:58.157Z,43.42
2023-01-26T05:47:25.113Z,43.92
2023-01-26T05:49:52.099Z,44.47
2023-01-26T05:52:24.516Z,44.66
2023-01-26T05:54:52.604Z,44.17
2023-01-26T05:57:19.642Z,45.14
2023-01-26T05:59:54.710Z,45.09
2023-01-26T06:02:22.349Z,45.20
2023-01-26T06:04:49.707Z,44.84
2023-01-26T06:07:16.514Z,44.86
2023-01-26T06:10:04.450Z,43.90
2023-01-26T06:13:06.801Z,44.23
2023-01-26T06:15:47.970Z,43.77
2023-01-26T06:18:14.874Z,44.17
2023-01-26T06:20:48.323Z,44.58
2023-01-26T06:23:16.198Z,44.04
2023-01-26T06:25:44.746Z,43.73
2023-01-26T06:28:11.607Z,43.80
2023-01-26T06:30:38.501Z,43.70
2023-01-26T06:33:10.625Z,43.98
2023-01-26T06:35:38.293Z,44.12
2023-01-26T06:38:10.307Z,44.62
2023-01-26T06:40:37.251Z,44.74
2023-01-26T06:43:04.245Z,44.32
2023-01-26T06:45:32.525Z,44.27
2023-01-26T06:48:00.725Z,44.03
2023-01-26T06:50:33.330Z,43.77
2023-01-26T06:53:04.439Z,45.06
2023-01-26T06:55:49.350Z,44.37
2023-01-26T06:58:33.970Z,44.48
2023-01-26T07:01:06.983Z,44.50
2023-01-26T07:03:33.876Z,44.25
2023-01-26T07:06:00.593Z,45.11
2023-01-26T07:08:27.704Z,45.04
2023-01-26T07:10:54.645Z,45.00
2023-01-26T07:13:21.767Z,44.56
2023-01-26T07:15:48.484Z,44.55
2023-01-26T07:18:15.391Z,44.70
2023-01-26T07:20:42.077Z,44.45
2023-01-26T07:23:08.719Z,45.06
2023-01-26T07:25:35.778Z,44.10
2023-01-26T07:28:02.628Z,45.44
2023-01-26T07:30:29.576Z,45.61
2023-01-26T07:32:59.680Z,45.47
2023-01-26T07:35:26.608Z,45.62
2023-01-26T07:37:53.298Z,45.38
2023-01-26T07:40:20.035Z,45.41
2023-01-26T07:42:47.206Z,44.41
2023-01-26T07:45:39.913Z,45.13
2023-01-26T07:48:06.769Z,44.96
2023-01-26T07:50:33.533Z,44.63
2023-01-26T07:53:00.826Z,44.88
2023-01-26T07:55:27.742Z,44.72
2023-01-26T07:57:54.613Z,44.03
2023-01-26T08:00:21.593Z,43.71
2023-01-26T08:02:51.618Z,44.08
2023-01-26T08:05:18.520Z,44.58
2023-01-26T08:07:45.384Z,44.19
2023-01-26T08:10:13.828Z,44.20
2023-01-26T08:12:41.345Z,44.44
2023-01-26T08:15:08.730Z,43.88
2023-01-26T08:17:36.154Z,44.63
2023-01-26T08:20:03.691Z,44.38
2023-01-26T08:22:30.531Z,44.08
2023-01-26T08:24:57.483Z,44.18
2023-01-26T08:27:24.299Z,43.95
2023-01-26T08:29:51.559Z,43.58
2023-01-26T08:32:18.271Z,43.31
2023-01-26T08:34:45.198Z,43.63
2023-01-26T08:37:11.927Z,43.46
2023-01-26T08:39:39.016Z,42.97
2023-01-26T08:42:05.771Z,42.73
2023-01-26T08:44:32.734Z,43.51
2023-01-26T08:46:59.524Z,43.26
2023-01-26T08:49:26.474Z,43.04
2023-01-26T08:51:53.163Z,43.40
2023-01-26T08:54:20.015Z,42.84
2023-01-26T08:56:46.767Z,43.03
2023-01-26T08:59:13.596Z,42.57
2023-01-26T09:01:40.342Z,42.44
2023-01-26T09:04:07.407Z,43.02
2023-01-26T09:06:34.240Z,43.23
2023-01-26T09:09:01.146Z,42.55
2023-01-26T09:11:28.348Z,42.57
2023-01-26T09:13:56.726Z,42.46
2023-01-26T09:16:24.256Z,42.50
2023-01-26T09:18:53.199Z,42.59
2023-01-26T09:21:20.357Z,42.40
2023-01-26T09:23:47.203Z,42.78
2023-01-26T09:26:14.048Z,42.20
2023-01-26T09:28:40.931Z,42.03
2023-01-26T09:31:10.818Z,44.16
2023-01-26T09:33:37.818Z,42.63
2023-01-26T09:36:10.631Z,42.86
2023-01-26T09:38:38.828Z,42.80
2023-01-26T09:41:08.139Z,42.19
2023-01-26T09:43:47.977Z,43.68
2023-01-26T09:46:22.705Z,42.69
2023-01-26T09:48:57.848Z,42.24
2023-01-26T09:51:33.843Z,42.08
2023-01-26T09:54:19.323Z,42.69
2023-01-26T09:56:46.231Z,42.80
2023-01-26T09:59:47.264Z,42.24
2023-01-26T10:02:29.486Z,42.62
2023-01-26T10:05:01.343Z,42.35
2023-01-26T10:07:28.593Z,41.86
2023-01-26T10:09:56.480Z,42.99
2023-01-26T10:12:28.279Z,42.31
2023-01-26T10:15:18.785Z,42.22
2023-01-26T10:17:47.399Z,41.90
2023-01-26T10:20:35.323Z,41.65
2023-01-26T10:23:16.819Z,41.83
2023-01-26T10:25:46.884Z,41.53
2023-01-26T10:28:19.955Z,41.68
2023-01-26T10:30:48.718Z,41.44
2023-01-26T10:33:20.694Z,41.39
2023-01-26T10:35:48.074Z,41.71
2023-01-26T10:38:33.331Z,41.50
2023-01-26T10:41:02.269Z,41.87
2023-01-26T10:43:29.905Z,42.36
2023-01-26T10:45:56.647Z,41.67
2023-01-26T10:48:27.218Z,42.44
2023-01-26T10:50:54.398Z,41.57
2023-01-26T10:53:29.897Z,42.59
2023-01-26T10:56:14.909Z,42.29
2023-01-26T10:58:41.953Z,41.89
2023-01-26T11:01:12.415Z,42.54
2023-01-26T11:03:39.808Z,42.71
2023-01-26T11:06:17.845Z,41.23
2023-01-26T11:08:44.803Z,41.65
2023-01-26T11:11:27.318Z,40.87
2023-01-26T11:14:16.398Z,41.69
2023-01-26T11:16:54.650Z,41.27
2023-01-26T11:20:07.419Z,41.58
2023-01-26T11:22:54.316Z,41.74
2023-01-26T11:25:31.731Z,40.84
2023-01-26T11:28:26.365Z,41.27
2023-01-26T11:31:16.636Z,41.99
2023-01-26T11:34:01.912Z,41.43
2023-01-26T11:36:40.724Z,40.79
2023-01-26T11:39:23.524Z,41.59
2023-01-26T11:42:11.924Z,41.35
2023-01-26T11:44:51.223Z,40.98
2023-01-26T11:47:42.410Z,41.95
2023-01-26T11:50:44.469Z,42.49
2023-01-26T11:53:42.957Z,41.21
2023-01-26T11:56:44.451Z,40.98
2023-01-26T11:59:37.033Z,41.70
2023-01-26T12:02:27.580Z,42.26
2023-01-26T12:05:01.020Z,42.07
2023-01-26T12:07:32.195Z,41.90
2023-01-26T12:10:02.512Z,41.75
2023-01-26T12:12:45.954Z,42.50
2023-01-26T12:15:37.094Z,42.90
2023-01-26T12:18:09.994Z,43.34
2023-01-26T12:21:09.121Z,42.78
2023-01-26T12:23:45.696Z,43.74
2023-01-26T12:26:17.200Z,43.07
2023-01-26T12:28:50.883Z,42.92
2023-01-26T12:31:33.431Z,42.49
2023-01-26T12:34:00.294Z,42.52
2023-01-26T12:36:59.452Z,42.69
2023-01-26T12:39:45.719Z,43.03
2023-01-26T12:42:46.878Z,43.11
2023-01-26T12:45:29.111Z,43.40
2023-01-26T12:48:16.189Z,43.46
2023-01-26T12:50:48.828Z,43.17
2023-01-26T12:53:34.374Z,43.62
2023-01-26T12:56:13.279Z,42.46
2023-01-26T12:58:44.525Z,43.47
2023-01-26T13:01:17.406Z,42.62
2023-01-26T13:03:51.935Z,42.81
2023-01-26T13:06:21.579Z,43.30
2023-01-26T13:09:00.654Z,43.12
2023-01-26T13:11:39.483Z,43.10
2023-01-26T13:14:42.034Z,42.83
2023-01-26T13:17:17.785Z,43.39
2023-01-26T13:19:44.609Z,45.11
2023-01-26T13:22:26.216Z,44.30
2023-01-26T13:24:56.205Z,44.74
2023-01-26T13:27:37.496Z,44.19
2023-01-26T13:30:24.629Z,43.51
2023-01-26T13:32:51.276Z,43.71
2023-01-26T13:35:22.120Z,43.83
2023-01-26T13:38:27.647Z,44.12
2023-01-26T13:40:56.006Z,44.39
2023-01-26T13:43:46.444Z,43.54
2023-01-26T13:46:16.246Z,44.00
2023-01-26T13:48:48.564Z,42.43
2023-01-26T13:51:22.285Z,43.39
2023-01-26T13:53:56.663Z,42.44
2023-01-26T13:56:39.067Z,42.91
2023-01-26T13:59:12.894Z,42.93
2023-01-26T14:01:49.194Z,42.32
2023-01-26T14:04:30.866Z,42.55
2023-01-26T14:07:10.025Z,43.57
2023-01-26T14:09:47.084Z,44.00
2023-01-26T14:12:26.723Z,42.97
2023-01-26T14:14:57.401Z,43.09
2023-01-26T14:17:36.786Z,43.13
2023-01-26T14:20:39.509Z,43.08
2023-01-26T14:23:18.552Z,42.21
2023-01-26T14:26:00.636Z,42.29
2023-01-26T14:28:34.732Z,41.78
2023-01-26T14:31:09.992Z,42.13
2023-01-26T14:33:37.590Z,42.73
2023-01-26T14:36:06.064Z,42.63
2023-01-26T14:38:50.890Z,41.92
2023-01-26T14:41:23.463Z,42.06
2023-01-26T14:43:58.537Z,41.80
2023-01-26T14:46:46.516Z,41.95
2023-01-26T14:49:19.377Z,42.26
2023-01-26T14:51:53.429Z,41.51
2023-01-26T14:54:28.356Z,42.02
2023-01-26T14:56:56.265Z,41.55
2023-01-26T14:59:28.654Z,42.12
2023-01-26T15:02:15.460Z,41.66
2023-01-26T15:04:47.692Z,41.98
2023-01-26T15:07:42.327Z,41.89
2023-01-26T15:10:43.266Z,43.92
2023-01-26T15:13:10.056Z,44.76
2023-01-26T15:16:02.657Z,43.84
2023-01-26T15:18:34.216Z,45.07
2023-01-26T15:21:20.818Z,45.96
2023-01-26T15:23:52.751Z,45.35
2023-01-26T15:26:34.078Z,45.30
2023-01-26T15:29:05.626Z,46.16
2023-01-26T15:31:35.400Z,45.55
2023-01-26T15:34:02.891Z,46.30
2023-01-26T15:36:47.481Z,47.67
2023-01-26T15:39:16.820Z,47.34
2023-01-26T15:41:47.154Z,46.23
2023-01-26T15:44:16.592Z,46.22
2023-01-26T15:46:44.673Z,46.98
2023-01-26T15:49:19.919Z,45.92
2023-01-26T15:51:46.715Z,46.18
2023-01-26T15:54:13.490Z,47.09
2023-01-26T15:56:40.283Z,47.83
2023-01-26T15:59:07.243Z,47.41
2023-01-26T16:01:34.051Z,47.36
2023-01-26T16:04:00.981Z,47.74
2023-01-26T16:06:30.310Z,47.50
2023-01-26T16:08:57.402Z,47.61
2023-01-26T16:11:30.453Z,47.37
2023-01-26T16:14:03.577Z,47.78
2023-01-26T16:16:32.665Z,48.59
2023-01-26T16:18:59.730Z,47.59
2023-01-26T16:21:31.579Z,47.83
2023-01-26T16:23:59.421Z,47.53
2023-01-26T16:26:27.830Z,48.15
2023-01-26T16:28:54.912Z,47.73
2023-01-26T16:31:24.691Z,48.26
2023-01-26T16:33:52.174Z,47.78
2023-01-26T16:36:20.560Z,47.03
2023-01-26T16:38:48.130Z,47.85
2023-01-26T16:41:32.528Z,47.11
2023-01-26T16:44:01.668Z,47.92
2023-01-26T16:46:29.664Z,47.77
2023-01-26T16:48:56.966Z,49.16
2023-01-26T16:51:29.942Z,48.12
2023-01-26T16:53:57.427Z,48.64
2023-01-26T16:56:25.281Z,48.86
2023-01-26T16:58:52.114Z,50.32
2023-01-26T17:01:23.571Z,48.81
2023-01-26T17:03:51.768Z,49.40
2023-01-26T17:06:19.514Z,48.82
2023-01-26T17:08:47.512Z,48.98
2023-01-26T17:11:27.594Z,48.48
2023-01-26T17:13:56.252Z,48.54
2023-01-26T17:16:25.969Z,49.02
2023-01-26T17:18:52.785Z,49.06
2023-01-26T17:21:20.571Z,48.94
2023-01-26T17:23:51.868Z,49.30
2023-01-26T17:26:20.324Z,49.41
2023-01-26T17:28:49.171Z,49.66
2023-01-26T17:31:18.332Z,49.34
2023-01-26T17:33:48.049Z,49.88
2023-01-26T17:36:16.292Z,49.62
2023-01-26T17:38:43.317Z,49.45
2023-01-26T17:41:10.279Z,50.02
2023-01-26T17:43:37.077Z,49.52
2023-01-26T17:46:08.708Z,50.13
2023-01-26T17:48:37.590Z,50.97
2023-01-26T17:51:12.605Z,50.69
2023-01-26T17:53:41.488Z,50.07
2023-01-26T17:56:09.812Z,50.41
2023-01-26T17:58:37.373Z,50.49
2023-01-26T18:01:06.445Z,50.97
2023-01-26T18:03:33.953Z,49.94
2023-01-26T18:06:00.711Z,49.98
2023-01-26T18:08:27.575Z,49.81
2023-01-26T18:11:02.100Z,49.80
2023-01-26T18:13:30.478Z,50.03
2023-01-26T18:15:57.731Z,50.19
2023-01-26T18:18:26.023Z,51.10
2023-01-26T18:20:53.095Z,50.86
2023-01-26T18:23:21.585Z,49.65
2023-01-26T18:25:48.776Z,50.56
2023-01-26T18:28:16.356Z,49.94
2023-01-26T18:30:43.289Z,50.83
2023-01-26T18:33:10.308Z,49.50
2023-01-26T18:35:37.024Z,49.74
2023-01-26T18:38:03.840Z,50.15
2023-01-26T18:40:31.094Z,49.92
2023-01-26T18:42:58.139Z,50.83
2023-01-26T18:45:25.022Z,50.45
2023-01-26T18:47:51.921Z,50.36
2023-01-26T18:50:18.882Z,49.74
2023-01-26T18:52:45.750Z,50.38
2023-01-26T18:55:13.267Z,49.78
2023-01-26T18:57:40.238Z,49.93
2023-01-26T19:00:08.744Z,50.41
2023-01-26T19:02:38.762Z,50.61
2023-01-26T19:05:09.525Z,49.81
2023-01-26T19:07:36.445Z,50.64
2023-01-26T19:10:05.040Z,50.22
2023-01-26T19:12:32.342Z,50.45
2023-01-26T19:15:00.103Z,50.30
2023-01-26T19:17:29.213Z,50.67
2023-01-26T19:19:55.986Z,50.48
2023-01-26T19:22:23.721Z,50.03
2023-01-26T19:24:50.446Z,50.51
2023-01-26T19:27:17.186Z,50.56
2023-01-26T19:29:43.928Z,50.49
2023-01-26T19:32:10.762Z,50.85
2023-01-26T19:34:37.631Z,50.10
2023-01-26T19:37:05.026Z,50.04
2023-01-26T19:39:31.719Z,50.55
2023-01-26T19:41:58.624Z,49.87
2023-01-26T19:44:25.432Z,49.72
2023-01-26T19:46:53.592Z,49.87
2023-01-26T19:49:21.432Z,49.66
2023-01-26T19:51:48.924Z,49.72
2023-01-26T19:54:16.012Z,49.37
2023-01-26T19:56:42.840Z,50.27
2023-01-26T19:59:11.823Z,50.07
2023-01-26T20:01:39.062Z,50.45
2023-01-26T20:04:09.477Z,49.83
2023-01-26T20:06:37.265Z,49.76
2023-01-26T20:09:05.541Z,50.13
2023-01-26T20:11:33.996Z,50.21
2023-01-26T20:14:11.541Z,50.06
2023-01-26T20:16:39.871Z,49.58
2023-01-26T20:19:06.690Z,50.12
2023-01-26T20:21:33.709Z,50.36
2023-01-26T20:24:05.731Z,51.05
2023-01-26T20:26:34.440Z,51.16
2023-01-26T20:29:01.850Z,50.55
2023-01-26T20:31:28.908Z,50.90
2023-01-26T20:33:56.006Z,50.84
2023-01-26T20:36:25.528Z,50.57
2023-01-26T20:38:52.621Z,50.44
2023-01-26T20:41:26.045Z,51.18
2023-01-26T20:44:00.211Z,51.20
2023-01-26T20:46:46.241Z,51.00
2023-01-26T20:49:15.746Z,51.11
2023-01-26T20:51:45.341Z,50.44
2023-01-26T20:54:14.795Z,50.91
2023-01-26T20:56:42.976Z,50.52
2023-01-26T20:59:10.806Z,50.13
2023-01-26T21:01:37.809Z,50.31
2023-01-26T21:04:05.544Z,50.31
2023-01-26T21:06:32.550Z,50.96
2023-01-26T21:09:00.170Z,50.67
2023-01-26T21:11:30.812Z,51.12
2023-01-26T21:14:00.620Z,51.10
2023-01-26T21:16:27.985Z,51.02
2023-01-26T21:18:55.467Z,51.61
2023-01-26T21:21:22.898Z,51.57
2023-01-26T21:23:50.721Z,51.00
2023-01-26T21:26:22.363Z,50.54
2023-01-26T21:28:54.985Z,50.80
2023-01-26T21:31:23.688Z,50.73
2023-01-26T21:33:50.951Z,51.09
2023-01-26T21:36:20.671Z,51.20
2023-01-26T21:38:50.895Z,50.50
2023-01-26T21:41:44.972Z,50.10
2023-01-26T21:44:17.435Z,50.46
2023-01-26T21:46:45.487Z,50.87
2023-01-26T21:49:13.463Z,50.98
2023-01-26T21:51:59.276Z,50.30
2023-01-26T21:54:26.725Z,50.75
2023-01-26T21:56:53.482Z,50.42
2023-01-26T21:59:20.310Z,50.69
2023-01-26T22:01:50.175Z,50.59
2023-01-26T22:04:20.002Z,50.19
2023-01-26T22:06:47.088Z,50.49
2023-01-26T22:09:15.927Z,50.34
2023-01-26T22:11:43.130Z,50.60
2023-01-26T22:14:18.570Z,50.17
2023-01-26T22:16:45.592Z,50.11
2023-01-26T22:19:13.000Z,50.16
2023-01-26T22:21:40.279Z,50.78
2023-01-26T22:24:10.573Z,50.12
2023-01-26T22:26:38.916Z,50.38
2023-01-26T22:29:06.178Z,50.42
2023-01-26T22:31:33.754Z,50.40
2023-01-26T22:34:01.373Z,50.17
2023-01-26T22:36:29.267Z,50.23
2023-01-26T22:38:56.532Z,50.01
2023-01-26T22:41:26.148Z,49.83
2023-01-26T22:43:56.466Z,50.06
2023-01-26T22:46:24.612Z,49.89
2023-01-26T22:48:52.071Z,49.56
2023-01-26T22:51:21.742Z,50.14
2023-01-26T22:53:50.747Z,49.92
2023-01-26T22:56:18.740Z,49.99
2023-01-26T22:58:57.642Z,49.88
2023-01-26T23:01:28.198Z,50.32
2023-01-26T23:03:55.565Z,50.14
2023-01-26T23:06:23.128Z,50.11
2023-01-26T23:08:50.652Z,50.29
2023-01-26T23:11:20.636Z,49.97
2023-01-26T23:13:49.647Z,49.72
2023-01-26T23:16:16.815Z,50.52
2023-01-26T23:18:44.060Z,50.44
2023-01-26T23:21:11.415Z,51.10
2023-01-26T23:23:39.691Z,49.96
2023-01-26T23:26:07.361Z,50.24
2023-01-26T23:28:37.097Z,50.19
2023-01-26T23:31:05.115Z,49.78
2023-01-26T23:33:34.105Z,49.37
2023-01-26T23:36:01.585Z,49.80
2023-01-26T23:38:29.691Z,49.91
2023-01-26T23:40:57.519Z,50.11
2023-01-26T23:43:24.464Z,49.30
2023-01-26T23:45:51.810Z,49.32
2023-01-26T23:48:20.124Z,49.83
2023-01-26T23:50:47.343Z,50.17
2023-01-26T23:53:14.648Z,50.14
2023-01-26T23:55:43.150Z,50.54
2023-01-26T23:58:11.354Z,49.95
